Time;durP1;ratioP1;P1;durP2;ratioP2;P2;SDS_P1;SDS_P2;PMS_P1;PMS_P2;Temp;Humidity;BMP_temperature;BMP_pressure;BME280_temperature;BME280_humidity;BME280_pressure;Samples;Min_cycle;Max_cycle;Signal;HPM_P1;HPM_P2
2021/11/16 00:01:04;;;;;;;;;;;;;;;5.04;100.00;102061.44;4977216;28;19996;-87
2021/11/16 00:03:30;;;;;;;;;;;;;;;5.05;100.00;102062.31;4976352;28;19914;-86
2021/11/16 00:05:56;;;;;;;;;;;;;;;5.03;100.00;102062.38;5007590;28;19971;-89
2021/11/16 00:08:21;;;;;;;;;;;;;;;5.00;100.00;102067.91;5007494;28;19917;-85
2021/11/16 00:10:46;;;;;;;;;;;;;;;4.99;100.00;102058.22;4989229;28;19971;-84
2021/11/16 00:13:12;;;;;;;;;;;;;;;5.01;100.00;102055.47;4992460;28;19913;-89
2021/11/16 00:15:38;;;;;;;;;;;;;;;5.01;100.00;102060.81;4985312;28;19999;-83
2021/11/16 00:18:03;;;;;;;;;;;;;;;4.98;100.00;102064.50;5007038;28;20113;-88
2021/11/16 00:20:31;;;;;;;;;;;;;;;5.01;100.00;102064.31;5007682;28;20035;-86
2021/11/16 00:22:57;;;;;;;;;;;;;;;5.02;100.00;102059.84;5002183;28;19913;-87
2021/11/16 00:25:32;;;;;;;;;;;;;;;4.98;100.00;102046.72;4972446;28;19917;-87
2021/11/16 00:27:57;;;;;;;;;;;;;;;4.97;100.00;102044.16;5006469;28;19918;-90
2021/11/16 00:30:23;;;;;;;;;;;;;;;4.98;100.00;102041.41;5009560;28;19913;-86
2021/11/16 00:32:49;;;;;;;;;;;;;;;4.99;100.00;102047.59;5001119;28;20300;-88
2021/11/16 00:35:14;;;;;;;;;;;;;;;4.99;100.00;102047.59;5005315;28;19913;-88
2021/11/16 00:37:39;;;;;;;;;;;;;;;4.98;100.00;102051.19;4985268;28;20038;-87
2021/11/16 00:40:07;;;;;;;;;;;;;;;5.03;100.00;102053.56;5002946;28;20266;-87
2021/11/16 00:42:32;;;;;;;;;;;;;;;5.00;100.00;102049.28;4982809;28;20012;-87
2021/11/16 00:44:57;;;;;;;;;;;;;;;5.00;100.00;102043.97;4987048;28;20000;-85
2021/11/16 00:47:23;;;;;;;;;;;;;;;5.01;100.00;102050.16;4985101;28;19996;-84
2021/11/16 00:49:56;;;;;;;;;;;;;;;5.02;100.00;102041.22;4971995;28;19967;-89
2021/11/16 00:52:22;;;;;;;;;;;;;;;5.01;100.00;102040.38;4987758;28;20405;-87
2021/11/16 00:54:47;;;;;;;;;;;;;;;5.01;100.00;102039.50;5006062;28;19979;-87
2021/11/16 00:57:13;;;;;;;;;;;;;;;5.02;100.00;102034.06;5008115;28;19913;-86
2021/11/16 00:59:38;;;;;;;;;;;;;;;5.03;100.00;102030.44;4974970;28;19914;-89
2021/11/16 01:02:04;;;;;;;;;;;;;;;5.01;100.00;102028.88;4984092;28;19913;-88
2021/11/16 01:04:34;;;;;;;;;;;;;;;4.99;100.00;102026.28;4984895;28;20321;-88
2021/11/16 01:07:02;;;;;;;;;;;;;;;4.99;100.00;102023.63;4970509;28;20426;-86
2021/11/16 01:09:27;;;;;;;;;;;;;;;4.99;100.00;102018.31;4989065;28;19921;-86
2021/11/16 01:11:53;;;;;;;;;;;;;;;4.98;100.00;102025.44;4989770;28;19913;-91
2021/11/16 01:14:18;;;;;;;;;;;;;;;4.98;100.00;102025.44;4991107;28;20000;-84
2021/11/16 01:16:44;;;;;;;;;;;;;;;5.01;100.00;102028.88;4990643;28;19917;-87
2021/11/16 01:19:10;;;;;;;;;;;;;;;4.98;100.00;102016.63;5008684;28;19914;-88
2021/11/16 01:21:35;;;;;;;;;;;;;;;4.99;100.00;102020.97;4988827;28;20767;-88
2021/11/16 01:24:02;;;;;;;;;;;;;;;4.98;100.00;102024.59;4968117;28;19918;-91
2021/11/16 01:26:28;;;;;;;;;;;;;;;4.97;100.00;102014.88;4984881;28;19993;-88
2021/11/16 01:28:56;;;;;;;;;;;;;;;4.97;100.00;102009.56;5006834;28;20070;-90
2021/11/16 01:31:22;;;;;;;;;;;;;;;4.97;100.00;102006.91;4986466;28;19920;-88
2021/11/16 01:33:55;;;;;;;;;;;;;;;4.97;100.00;102004.25;4973409;28;20112;-87
2021/11/16 01:36:21;;;;;;;;;;;;;;;4.95;100.00;102003.50;5006508;28;19920;-86
2021/11/16 01:38:48;;;;;;;;;;;;;;;4.95;100.00;101999.03;5008953;28;19980;-87
2021/11/16 01:41:13;;;;;;;;;;;;;;;4.96;100.00;101995.41;4988201;28;19944;-86
2021/11/16 01:43:41;;;;;;;;;;;;;;;4.97;100.00;101997.13;4974470;28;20219;-84
2021/11/16 01:46:12;;;;;;;;;;;;;;;4.97;100.00;101996.28;4991762;28;20398;-87
2021/11/16 01:48:40;;;;;;;;;;;;;;;4.98;100.00;101987.34;5008877;28;19918;-89
2021/11/16 01:51:05;;;;;;;;;;;;;;;4.96;100.00;101987.44;5008210;28;19917;-85
2021/11/16 01:53:31;;;;;;;;;;;;;;;4.95;100.00;101979.56;4969572;28;19952;-87
2021/11/16 01:55:57;;;;;;;;;;;;;;;4.95;100.00;101992.88;5003434;28;19918;-87
2021/11/16 01:58:22;;;;;;;;;;;;;;;4.96;100.00;101981.28;4971638;28;19914;-88
2021/11/16 02:00:49;;;;;;;;;;;;;;;4.95;100.00;101979.56;4988478;28;19918;-89
2021/11/16 02:03:14;;;;;;;;;;;;;;;4.95;100.00;101976.91;5002556;28;19917;-88
2021/11/16 02:05:41;;;;;;;;;;;;;;;4.97;100.00;101974.97;5006128;28;19917;-86
2021/11/16 02:08:07;;;;;;;;;;;;;;;4.95;100.00;101974.25;5001633;28;20020;-87
2021/11/16 02:10:32;;;;;;;;;;;;;;;4.93;100.00;101978.81;5004979;28;19921;-86
2021/11/16 02:12:59;;;;;;;;;;;;;;;4.93;100.00;101976.16;4989176;28;19921;-87
2021/11/16 02:15:24;;;;;;;;;;;;;;;4.94;100.00;101969.88;4987228;28;19913;-86
2021/11/16 02:17:49;;;;;;;;;;;;;;;4.92;100.00;101966.44;5009089;28;20427;-86
2021/11/16 02:20:16;;;;;;;;;;;;;;;4.92;100.00;101956.69;4995288;28;19913;-86
2021/11/16 02:22:42;;;;;;;;;;;;;;;4.93;100.00;101957.53;4992244;28;20304;-89
2021/11/16 02:25:07;;;;;;;;;;;;;;;4.91;100.00;101956.75;4992963;28;19924;-89
2021/11/16 02:27:33;;;;;;;;;;;;;;;4.91;100.00;101970.91;4994022;28;20373;-84
2021/11/16 02:29:59;;;;;;;;;;;;;;;4.89;100.00;101967.53;5002479;28;19948;-83
2021/11/16 02:32:30;;;;;;;;;;;;;;;4.89;100.00;101971.97;4972408;28;19918;-88
2021/11/16 02:34:55;;;;;;;;;;;;;;;4.88;100.00;101962.28;4981011;28;19953;-93
2021/11/16 02:37:20;;;;;;;;;;;;;;;4.89;100.00;101961.31;4993380;28;19956;-91
2021/11/16 02:39:45;;;;;;;;;;;;;;;4.89;100.00;101962.19;5011727;28;19960;-90
2021/11/16 02:42:11;;;;;;;;;;;;;;;4.85;100.00;101958.00;4969792;28;19918;-86
2021/11/16 02:44:36;;;;;;;;;;;;;;;4.88;100.00;101960.47;5003509;28;19964;-87
2021/11/16 02:47:02;;;;;;;;;;;;;;;4.89;100.00;101967.53;5012325;28;20392;-90
2021/11/16 02:49:30;;;;;;;;;;;;;;;4.91;100.00;101954.09;5011550;28;19913;-87
2021/11/16 02:51:55;;;;;;;;;;;;;;;4.92;100.00;101955.81;5007952;28;19917;-86
2021/11/16 02:54:22;;;;;;;;;;;;;;;4.93;100.00;101954.88;4989702;28;20350;-86
2021/11/16 02:56:47;;;;;;;;;;;;;;;4.95;100.00;101955.63;4997736;28;19928;-83
2021/11/16 02:59:13;;;;;;;;;;;;;;;4.94;100.00;101953.91;5001263;28;19917;-83
2021/11/16 03:01:39;;;;;;;;;;;;;;;4.93;100.00;101957.53;4995393;28;19913;-88
2021/11/16 03:04:05;;;;;;;;;;;;;;;4.95;100.00;101964.47;5011490;28;19940;-88
2021/11/16 03:06:32;;;;;;;;;;;;;;;4.94;100.00;101956.56;5009395;28;20000;-92
2021/11/16 03:08:58;;;;;;;;;;;;;;;4.95;100.00;101955.63;4986834;28;20389;-92
2021/11/16 03:11:26;;;;;;;;;;;;;;;4.95;100.00;101955.63;4991219;28;20378;-84
2021/11/16 03:13:54;;;;;;;;;;;;;;;4.95;100.00;101945.00;5009513;28;20298;-89
2021/11/16 03:16:20;;;;;;;;;;;;;;;4.97;100.00;101957.22;5008995;28;19971;-86
2021/11/16 03:18:53;;;;;;;;;;;;;;;4.96;100.00;101952.84;5010223;28;19988;-87
2021/11/16 03:21:22;;;;;;;;;;;;;;;4.92;100.00;101951.34;4990662;28;19913;-92
2021/11/16 03:23:50;;;;;;;;;;;;;;;4.94;100.00;101953.91;5006559;28;19961;-87
2021/11/16 03:26:16;;;;;;;;;;;;;;;4.95;100.00;101950.31;4986478;28;19925;-85
2021/11/16 03:28:45;;;;;;;;;;;;;;;4.96;100.00;101946.69;5007069;28;20016;-84
2021/11/16 03:31:20;;;;;;;;;;;;;;;4.94;100.00;101951.25;4987985;28;20489;-88
2021/11/16 03:33:45;;;;;;;;;;;;;;;4.92;100.00;101953.13;5001692;28;19918;-85
2021/11/16 03:36:10;;;;;;;;;;;;;;;4.94;100.00;101945.91;5003296;28;19918;-85
2021/11/16 03:38:36;;;;;;;;;;;;;;;4.92;100.00;101946.03;4988710;28;20015;-86
2021/11/16 03:41:03;;;;;;;;;;;;;;;4.91;100.00;101948.78;5009190;28;19913;-86
2021/11/16 03:43:29;;;;;;;;;;;;;;;4.92;100.00;101947.81;4977945;28;20589;-94
2021/11/16 03:45:57;;;;;;;;;;;;;;;4.92;100.00;101945.16;4984543;28;19918;-91
2021/11/16 03:48:24;;;;;;;;;;;;;;;4.91;100.00;101939.00;5007987;28;19913;-86
2021/11/16 03:50:52;;;;;;;;;;;;;;;4.92;100.00;101934.53;4990204;28;19913;-88
2021/11/16 03:53:17;;;;;;;;;;;;;;;4.89;100.00;101932.94;5009941;28;19967;-86
2021/11/16 03:55:43;;;;;;;;;;;;;;;4.91;100.00;101932.81;4993013;28;19913;-88
2021/11/16 03:58:10;;;;;;;;;;;;;;;4.89;100.00;101932.94;5007154;28;19913;-89
2021/11/16 04:00:37;;;;;;;;;;;;;;;4.88;100.00;101931.22;5000249;28;19914;-89
2021/11/16 04:03:03;;;;;;;;;;;;;;;4.90;100.00;101933.78;4987237;28;19921;-85
2021/11/16 04:05:30;;;;;;;;;;;;;;;4.88;100.00;101933.03;4988447;28;20425;-83
2021/11/16 04:07:57;;;;;;;;;;;;;;;4.90;100.00;101944.44;4993309;28;20369;-91
2021/11/16 04:10:23;;;;;;;;;;;;;;;4.89;100.00;101937.38;4991785;28;19953;-87
2021/11/16 04:12:49;;;;;;;;;;;;;;;4.86;100.00;101930.47;4994517;28;19913;-88
2021/11/16 04:15:15;;;;;;;;;;;;;;;4.87;100.00;101931.34;4990962;28;19914;-88
2021/11/16 04:17:43;;;;;;;;;;;;;;;4.88;100.00;101927.72;4991029;28;20289;-91
2021/11/16 04:20:13;;;;;;;;;;;;;;;4.89;100.00;101940.03;4989653;28;19913;-89
2021/11/16 04:22:39;;;;;;;;;;;;;;;4.90;100.00;101936.44;5012145;28;19968;-90
2021/11/16 04:25:05;;;;;;;;;;;;;;;4.88;100.00;101931.22;5012947;28;19921;-89
2021/11/16 04:27:30;;;;;;;;;;;;;;;4.87;100.00;101926.00;4995213;28;20289;-89
2021/11/16 04:29:56;;;;;;;;;;;;;;;4.87;100.00;101931.34;4994557;28;19927;-87
2021/11/16 04:32:21;;;;;;;;;;;;;;;4.85;100.00;101930.56;5011485;28;19917;-86
2021/11/16 04:34:46;;;;;;;;;;;;;;;4.86;100.00;101933.16;5009858;28;19948;-88
2021/11/16 04:37:11;;;;;;;;;;;;;;;4.86;100.00;101918.97;5010787;28;20322;-88
2021/11/16 04:39:37;;;;;;;;;;;;;;;4.88;100.00;101927.72;5011625;28;19956;-89
2021/11/16 04:42:02;;;;;;;;;;;;;;;4.86;100.00;101932.25;4993529;28;20354;-88
2021/11/16 04:44:28;;;;;;;;;;;;;;;4.86;100.00;101926.94;5011780;28;19918;-87
2021/11/16 04:46:54;;;;;;;;;;;;;;;4.84;100.00;101932.38;4993752;28;19960;-86
2021/11/16 04:49:37;;;;;;;;;;;;;;;4.84;100.00;101927.06;5012833;28;19913;-86
2021/11/16 05:02:34;;;;;;;;;;;;;;;4.85;100.00;101922.59;5012533;28;19933;-87
2021/11/16 05:04:59;;;;;;;;;;;;;;;4.88;100.00;101925.03;5011839;28;19917;-88
2021/11/16 05:07:26;;;;;;;;;;;;;;;4.84;100.00;101926.22;4983823;28;20373;-89
2021/11/16 05:09:53;;;;;;;;;;;;;;;4.85;100.00;101927.91;4994730;28;19971;-84
2021/11/16 05:12:19;;;;;;;;;;;;;;;4.85;100.00;101923.44;4995071;28;19913;-87
2021/11/16 05:14:44;;;;;;;;;;;;;;;4.84;100.00;101920.91;5015622;28;19960;-87
2021/11/16 05:17:10;;;;;;;;;;;;;;;4.83;100.00;101929.81;5016862;28;19913;-84
2021/11/16 05:19:36;;;;;;;;;;;;;;;4.82;100.00;101926.28;4998146;28;19914;-84
2021/11/16 05:22:01;;;;;;;;;;;;;;;4.84;100.00;101931.53;5007141;28;19922;-89
2021/11/16 05:24:26;;;;;;;;;;;;;;;4.84;100.00;101934.19;4995588;28;19928;-85
2021/11/16 05:26:52;;;;;;;;;;;;;;;4.84;100.00;101935.03;4978913;28;19914;-91
2021/11/16 05:29:18;;;;;;;;;;;;;;;4.84;100.00;101936.84;4986455;28;20000;-84
2021/11/16 05:31:43;;;;;;;;;;;;;;;4.82;100.00;101938.75;4989157;28;20000;-88
2021/11/16 05:34:08;;;;;;;;;;;;;;;4.79;100.00;101939.78;5002159;28;19982;-89
2021/11/16 05:36:34;;;;;;;;;;;;;;;4.80;100.00;101936.16;5009933;28;19913;-88
2021/11/16 05:38:59;;;;;;;;;;;;;;;4.79;100.00;101939.78;5000047;28;19957;-89
2021/11/16 05:41:24;;;;;;;;;;;;;;;4.80;100.00;101940.63;5006798;28;19920;-89
2021/11/16 05:43:50;;;;;;;;;;;;;;;4.74;100.00;101944.53;4956472;28;20231;-86
2021/11/16 05:46:23;;;;;;;;;;;;;;;4.75;100.00;101944.47;4973455;28;19924;-86
2021/11/16 05:48:53;;;;;;;;;;;;;;;4.78;100.00;101948.75;4991340;28;20029;-85
2021/11/16 05:51:21;;;;;;;;;;;;;;;4.75;100.00;101944.47;4992244;28;19960;-84
2021/11/16 05:53:52;;;;;;;;;;;;;;;4.77;100.00;101952.31;4993095;28;19921;-88
2021/11/16 05:56:20;;;;;;;;;;;;;;;4.78;100.00;101942.56;5011103;28;20301;-83
2021/11/16 05:58:47;;;;;;;;;;;;;;;4.78;100.00;101950.53;5010560;28;20301;-86
2021/11/16 06:01:12;;;;;;;;;;;;;;;4.76;100.00;101945.31;4994097;28;19917;-88
2021/11/16 06:03:37;;;;;;;;;;;;;;;4.75;100.00;101948.94;5006294;28;19914;-83
2021/11/16 06:06:03;;;;;;;;;;;;;;;4.68;100.00;101948.44;4976531;28;19928;-89
2021/11/16 06:08:28;;;;;;;;;;;;;;;4.69;100.00;101954.63;4978608;28;19921;-88
2021/11/16 06:10:55;;;;;;;;;;;;;;;4.61;100.00;101949.81;4993135;28;20251;-85
2021/11/16 06:13:20;;;;;;;;;;;;;;;4.65;100.00;101948.66;4993934;28;19940;-84
2021/11/16 06:15:46;;;;;;;;;;;;;;;4.66;100.00;101950.38;5010971;28;19917;-84
2021/11/16 06:18:12;;;;;;;;;;;;;;;4.66;100.00;101938.84;4978048;28;19948;-86
2021/11/16 06:20:38;;;;;;;;;;;;;;;4.65;100.00;101935.34;4977266;28;19918;-92
2021/11/16 06:23:03;;;;;;;;;;;;;;;4.70;100.00;101940.38;4993995;28;19921;-93
2021/11/16 06:25:29;;;;;;;;;;;;;;;4.71;100.00;101931.44;5008108;28;19917;-86
2021/11/16 06:27:55;;;;;;;;;;;;;;;4.70;100.00;101935.91;5012895;28;19956;-83
2021/11/16 06:30:21;;;;;;;;;;;;;;;4.67;100.00;101930.81;4972493;28;19913;-82
2021/11/16 06:32:46;;;;;;;;;;;;;;;4.67;100.00;101935.28;5001330;28;19925;-83
2021/11/16 06:35:16;;;;;;;;;;;;;;;4.65;100.00;101938.00;4995392;28;19914;-84
2021/11/16 06:37:41;;;;;;;;;;;;;;;4.67;100.00;101938.78;4975903;28;19939;-85
2021/11/16 06:40:08;;;;;;;;;;;;;;;4.67;100.00;101944.09;5009633;28;19932;-86
2021/11/16 06:42:34;;;;;;;;;;;;;;;4.65;100.00;101938.00;5005321;28;19945;-86
2021/11/16 06:45:00;;;;;;;;;;;;;;;4.63;100.00;101945.25;4990569;28;20391;-87
2021/11/16 06:47:25;;;;;;;;;;;;;;;4.66;100.00;101934.44;4985522;28;19914;-83
2021/11/16 06:49:52;;;;;;;;;;;;;;;4.67;100.00;101938.78;4986358;28;19913;-88
2021/11/16 06:52:18;;;;;;;;;;;;;;;4.67;100.00;101943.25;5007192;28;19922;-86
2021/11/16 06:54:45;;;;;;;;;;;;;;;4.65;100.00;101943.34;4970600;28;19921;-87
2021/11/16 06:57:12;;;;;;;;;;;;;;;4.64;100.00;101946.09;4998627;28;20041;-87
2021/11/16 06:59:38;;;;;;;;;;;;;;;4.64;100.00;101951.41;5003525;28;20456;-87
2021/11/16 07:02:05;;;;;;;;;;;;;;;4.63;100.00;101949.69;4991039;28;20008;-87
2021/11/16 07:04:34;;;;;;;;;;;;;;;4.62;100.00;101951.50;4973133;28;19953;-86
2021/11/16 07:06:59;;;;;;;;;;;;;;;4.63;100.00;101953.22;4975657;28;19913;-88
2021/11/16 07:09:25;;;;;;;;;;;;;;;4.65;100.00;101948.66;4988929;28;19920;-83
2021/11/16 07:11:54;;;;;;;;;;;;;;;4.65;100.00;101953.13;4986281;28;20418;-86
2021/11/16 07:14:21;;;;;;;;;;;;;;;4.66;100.00;101949.50;5005738;28;19913;-87
2021/11/16 07:16:52;;;;;;;;;;;;;;;4.66;100.00;101950.38;4991518;28;20428;-86
2021/11/16 07:19:17;;;;;;;;;;;;;;;4.66;100.00;101947.72;5001552;28;20316;-87
2021/11/16 07:21:46;;;;;;;;;;;;;;;4.65;100.00;101953.13;5006482;28;20016;-83
2021/11/16 07:24:30;;;;;;;;;;;;;;;4.64;100.00;101957.59;4984309;28;19920;-83
2021/11/16 07:26:57;;;;;;;;;;;;;;;4.60;100.00;101956.06;5000179;28;20286;-85
2021/11/16 07:29:30;;;;;;;;;;;;;;;4.59;100.00;101954.34;4976070;28;20000;-84
2021/11/16 07:31:56;;;;;;;;;;;;;;;4.60;100.00;101956.06;5008087;28;19967;-87
2021/11/16 07:34:22;;;;;;;;;;;;;;;4.63;100.00;101950.56;4976277;28;19913;-88
2021/11/16 07:36:53;;;;;;;;;;;;;;;4.59;100.00;101951.69;5008797;28;19976;-83
2021/11/16 07:39:18;;;;;;;;;;;;;;;4.59;100.00;101949.03;5007840;28;19921;-85
2021/11/16 07:41:44;;;;;;;;;;;;;;;4.60;100.00;101956.06;5007448;28;19914;-84
2021/11/16 07:44:11;;;;;;;;;;;;;;;4.56;100.00;101943.91;4976657;28;19913;-86
2021/11/16 07:46:38;;;;;;;;;;;;;;;4.55;100.00;101944.88;5003652;28;20290;-86
2021/11/16 07:49:04;;;;;;;;;;;;;;;4.56;100.00;101938.59;4973790;28;19980;-87
2021/11/16 07:51:29;;;;;;;;;;;;;;;4.59;100.00;101942.88;5008135;28;20400;-85
2021/11/16 07:53:56;;;;;;;;;;;;;;;4.60;100.00;101939.25;4987047;28;19924;-88
2021/11/16 07:56:25;;;;;;;;;;;;;;;4.57;100.00;101936.78;4984360;28;19913;-87
2021/11/16 07:59:02;;;;;;;;;;;;;;;4.56;100.00;101937.75;4973928;28;19914;-84
2021/11/16 08:04:22;;;;;;;;;;;;;;;4.56;100.00;101932.44;4947890;28;19948;-85
2021/11/16 08:12:06;;;;;;;;;;;;;;;4.53;100.00;101934.34;4964186;28;19987;-84
2021/11/16 08:14:34;;;;;;;;;;;;;;;4.58;100.00;101936.72;4966765;28;19914;-82
2021/11/16 08:17:02;;;;;;;;;;;;;;;4.60;100.00;101937.44;4961862;28;20255;-88
2021/11/16 08:19:28;;;;;;;;;;;;;;;4.62;100.00;101942.69;4949017;28;19926;-90
2021/11/16 08:21:57;;;;;;;;;;;;;;;4.62;100.00;101940.03;4954656;28;19914;-84
2021/11/16 08:24:25;;;;;;;;;;;;;;;4.61;100.00;101943.66;4955306;28;20249;-87
2021/11/16 08:26:51;;;;;;;;;;;;;;;4.61;100.00;101935.66;4990350;28;19917;-85
2021/11/16 08:29:24;;;;;;;;;;;;;;;4.59;100.00;101937.56;5000947;28;20480;-85
2021/11/16 08:31:52;;;;;;;;;;;;;;;4.55;100.00;101928.94;4983312;28;19976;-86
2021/11/16 08:34:19;;;;;;;;;;;;;;;4.56;100.00;101927.13;4991250;28;19921;-86
2021/11/16 08:36:46;;;;;;;;;;;;;;;4.58;100.00;101928.72;5005975;28;20563;-86
2021/11/16 08:39:14;;;;;;;;;;;;;;;4.60;100.00;101921.50;4988569;28;20344;-87
2021/11/16 08:41:40;;;;;;;;;;;;;;;4.62;100.00;101924.91;5007235;28;19960;-85
2021/11/16 08:44:07;;;;;;;;;;;;;;;4.62;100.00;101918.75;5005011;28;19917;-87
2021/11/16 08:46:32;;;;;;;;;;;;;;;4.66;100.00;101922.91;4990452;28;20014;-89
2021/11/16 08:48:58;;;;;;;;;;;;;;;4.66;100.00;101929.09;5004707;28;19968;-84
2021/11/16 08:51:23;;;;;;;;;;;;;;;4.64;100.00;101923.03;4979279;28;19913;-85
2021/11/16 08:53:49;;;;;;;;;;;;;;;4.62;100.00;101922.25;4985172;28;19924;-84
2021/11/16 08:56:16;;;;;;;;;;;;;;;4.63;100.00;101920.44;5005757;28;19921;-85
2021/11/16 08:58:42;;;;;;;;;;;;;;;4.61;100.00;101920.56;5007827;28;19972;-87
2021/11/16 09:01:08;;;;;;;;;;;;;;;4.65;100.00;101914.09;5000423;28;20157;-85
2021/11/16 09:03:36;;;;;;;;;;;;;;;4.69;100.00;101926.25;4987855;28;19918;-83
2021/11/16 09:06:03;;;;;;;;;;;;;;;4.67;100.00;101928.16;4985514;28;19923;-88
2021/11/16 09:08:37;;;;;;;;;;;;;;;4.63;100.00;101920.44;5003574;28;19965;-84
2021/11/16 09:11:09;;;;;;;;;;;;;;;4.66;100.00;101923.78;5003665;28;19914;-84
2021/11/16 09:13:35;;;;;;;;;;;;;;;4.70;100.00;101917.31;5000672;28;19914;-85
2021/11/16 09:16:05;;;;;;;;;;;;;;;4.67;100.00;101920.16;4996742;28;19964;-83
2021/11/16 09:18:36;;;;;;;;;;;;;;;4.66;100.00;101910.50;5003142;28;19928;-86
2021/11/16 09:21:04;;;;;;;;;;;;;;;4.69;100.00;101906.75;5001288;28;19940;-83
2021/11/16 09:23:34;;;;;;;;;;;;;;;4.69;100.00;101906.75;5007428;28;19913;-88
2021/11/16 09:26:09;;;;;;;;;;;;;;;4.68;100.00;101911.22;5005256;28;19921;-86
2021/11/16 09:28:34;;;;;;;;;;;;;;;4.69;100.00;101897.00;5005098;28;20331;-85
2021/11/16 09:31:21;;;;;;;;;;;;;;;4.73;100.00;101908.28;4983107;28;20213;-88
2021/11/16 09:33:47;;;;;;;;;;;;;;;4.71;100.00;101903.03;5000922;28;20221;-84
2021/11/16 09:36:34;;;;;;;;;;;;;;;4.74;100.00;101905.50;4991302;28;19936;-84
2021/11/16 09:39:05;;;;;;;;;;;;;;;4.79;100.00;101907.03;4988798;28;20012;-86
2021/11/16 09:41:34;;;;;;;;;;;;;;;4.77;100.00;101898.28;4987159;28;20361;-88
2021/11/16 09:44:14;;;;;;;;;;;;;;;4.75;100.00;101893.09;5005593;28;19921;-87
2021/11/16 09:46:43;;;;;;;;;;;;;;;4.74;100.00;101894.03;5004613;28;20333;-86
2021/11/16 09:49:11;;;;;;;;;;;;;;;4.74;100.00;101894.88;4996247;28;19914;-85
2021/11/16 09:51:38;;;;;;;;;;;;;;;4.74;100.00;101891.38;5001378;28;19913;-86
2021/11/16 09:54:06;;;;;;;;;;;;;;;4.71;100.00;101897.72;4987318;28;19922;-87
2021/11/16 09:56:33;;;;;;;;;;;;;;;4.76;100.00;101897.44;4983638;28;19920;-83
2021/11/16 09:58:59;;;;;;;;;;;;;;;4.77;100.00;101896.47;4969109;28;20250;-85
2021/11/16 10:01:27;;;;;;;;;;;;;;;4.71;100.00;101900.38;5000718;28;19971;-86
2021/11/16 10:04:05;;;;;;;;;;;;;;;4.68;100.00;101889.94;5004496;28;19913;-86
2021/11/16 10:06:31;;;;;;;;;;;;;;;4.70;100.00;101904.00;5006023;28;20366;-87
2021/11/16 10:08:56;;;;;;;;;;;;;;;4.71;100.00;101897.72;5005953;28;19921;-84
2021/11/16 10:11:23;;;;;;;;;;;;;;;4.70;100.00;101890.72;4980962;28;19914;-85
2021/11/16 10:13:48;;;;;;;;;;;;;;;4.75;100.00;101891.28;5002666;28;19928;-86
2021/11/16 10:16:13;;;;;;;;;;;;;;;4.76;100.00;101886.81;4983874;28;20296;-88
2021/11/16 10:18:41;;;;;;;;;;;;;;;4.83;100.00;101888.09;4986716;28;20007;-88
2021/11/16 10:21:07;;;;;;;;;;;;;;;4.83;100.00;101884.59;5002900;28;19920;-87
2021/11/16 10:23:34;;;;;;;;;;;;;;;4.79;100.00;101875.13;4997922;28;19921;-86
2021/11/16 10:26:01;;;;;;;;;;;;;;;4.80;100.00;101877.66;5004605;28;19979;-88
2021/11/16 10:28:29;;;;;;;;;;;;;;;4.83;100.00;101865.97;5000757;28;19945;-84
2021/11/16 10:30:58;;;;;;;;;;;;;;;4.85;100.00;101858.75;4966896;28;19920;-87
2021/11/16 10:33:25;;;;;;;;;;;;;;;4.87;100.00;101856.84;5002522;28;19957;-88
2021/11/16 10:35:50;;;;;;;;;;;;;;;4.82;100.00;101866.94;4991560;28;20008;-86
2021/11/16 10:38:17;;;;;;;;;;;;;;;4.79;100.00;101849.38;4988416;28;20000;-83
2021/11/16 10:40:44;;;;;;;;;;;;;;;4.82;100.00;101853.63;5000461;28;20386;-87
2021/11/16 10:43:09;;;;;;;;;;;;;;;4.87;100.00;101849.72;5001490;28;20362;-84
2021/11/16 10:45:37;;;;;;;;;;;;;;;4.90;100.00;101840.69;4987636;28;19971;-87
2021/11/16 10:48:05;;;;;;;;;;;;;;;4.90;100.00;101838.88;5001610;28;19955;-87
2021/11/16 10:50:32;;;;;;;;;;;;;;;4.89;100.00;101845.16;5003023;28;20293;-85
2021/11/16 10:53:07;;;;;;;;;;;;;;;4.82;100.00;101838.53;4999553;28;19917;-84
2021/11/16 10:55:33;;;;;;;;;;;;;;;4.82;100.00;101837.69;4998629;28;20426;-86
2021/11/16 10:58:04;;;;;;;;;;;;;;;4.73;100.00;101840.00;4987709;28;19972;-86
2021/11/16 11:00:30;;;;;;;;;;;;;;;4.74;100.00;101824.88;4984079;28;19948;-84
2021/11/16 11:03:09;;;;;;;;;;;;;;;4.81;100.00;101828.00;5006038;28;19917;-83
2021/11/16 11:05:35;;;;;;;;;;;;;;;4.66;100.00;101817.44;4984881;28;19925;-86
2021/11/16 11:08:01;;;;;;;;;;;;;;;4.70;100.00;101829.56;4986601;28;19917;-87
2021/11/16 11:10:39;;;;;;;;;;;;;;;4.79;100.00;101817.47;5001693;28;19921;-84
2021/11/16 11:13:18;;;;;;;;;;;;;;;4.78;100.00;101818.44;4993038;28;19964;-86
2021/11/16 11:15:43;;;;;;;;;;;;;;;4.78;100.00;101809.59;5007367;28;19913;-87
2021/11/16 11:18:08;;;;;;;;;;;;;;;4.84;100.00;101811.84;4965829;28;20413;-86
2021/11/16 11:20:37;;;;;;;;;;;;;;;4.86;100.00;101809.91;5004837;28;19960;-84
2021/11/16 11:23:22;;;;;;;;;;;;;;;4.82;100.00;101803.97;5004856;28;19929;-87
2021/11/16 11:25:49;;;;;;;;;;;;;;;4.73;100.00;101801.91;4988281;28;20341;-85
2021/11/16 11:28:33;;;;;;;;;;;;;;;4.75;100.00;101792.88;5003939;28;20314;-86
2021/11/16 11:30:58;;;;;;;;;;;;;;;4.85;100.00;101795.78;5001151;28;19984;-86
2021/11/16 11:33:43;;;;;;;;;;;;;;;4.79;100.00;101795.34;5005505;28;20385;-86
2021/11/16 11:36:19;;;;;;;;;;;;;;;4.90;100.00;101798.13;4988329;28;19913;-87
2021/11/16 11:38:44;;;;;;;;;;;;;;;4.94;100.00;101789.81;5006055;28;19960;-86
2021/11/16 11:41:10;;;;;;;;;;;;;;;4.97;100.00;101794.94;4982511;28;19913;-85
2021/11/16 11:43:35;;;;;;;;;;;;;;;4.99;100.00;101794.84;4981988;28;19913;-85
2021/11/16 11:46:01;;;;;;;;;;;;;;;5.07;100.00;101797.00;4983181;28;20325;-85
2021/11/16 11:48:26;;;;;;;;;;;;;;;4.99;100.00;101792.19;4968142;28;19922;-84
2021/11/16 11:50:53;;;;;;;;;;;;;;;5.06;100.00;101796.13;4990248;28;19917;-83
2021/11/16 11:53:23;;;;;;;;;;;;;;;5.02;100.00;101794.63;5005754;28;19920;-85
2021/11/16 11:55:53;;;;;;;;;;;;;;;4.92;100.00;101783.78;5005489;28;19925;-84
2021/11/16 11:58:19;;;;;;;;;;;;;;;5.02;100.00;101791.13;4999892;28;19913;-88
2021/11/16 12:00:46;;;;;;;;;;;;;;;5.03;100.00;101792.81;5005977;28;19994;-84
2021/11/16 12:03:11;;;;;;;;;;;;;;;4.98;100.00;101788.69;4982798;28;19993;-87
2021/11/16 12:05:38;;;;;;;;;;;;;;;5.00;100.00;101793.03;5003247;28;21027;-86
2021/11/16 12:08:04;;;;;;;;;;;;;;;5.03;100.00;101799.00;4982882;28;19917;-86
2021/11/16 12:10:30;;;;;;;;;;;;;;;5.06;100.00;101801.44;4978487;28;19996;-85
2021/11/16 12:12:55;;;;;;;;;;;;;;;5.07;100.00;101795.19;5005512;28;20382;-84
2021/11/16 12:15:29;;;;;;;;;;;;;;;5.00;100.00;101795.69;4987311;28;19960;-86
2021/11/16 12:17:56;;;;;;;;;;;;;;;5.01;100.00;101784.13;4985702;28;20642;-85
2021/11/16 12:20:40;;;;;;;;;;;;;;;5.01;100.00;101781.47;5002238;28;19985;-84
2021/11/16 12:23:07;;;;;;;;;;;;;;;5.03;100.00;101783.03;4980494;28;19913;-87
2021/11/16 12:25:32;;;;;;;;;;;;;;;5.02;100.00;101791.97;4982865;28;19918;-87
2021/11/16 12:27:58;;;;;;;;;;;;;;;5.00;100.00;101783.25;4999376;28;19940;-85
2021/11/16 12:30:46;;;;;;;;;;;;;;;5.06;100.00;101774.00;4981285;28;20012;-86
2021/11/16 12:33:12;;;;;;;;;;;;;;;5.05;100.00;101773.16;5000509;28;19924;-85
2021/11/16 12:35:48;;;;;;;;;;;;;;;5.05;100.00;101767.81;5003318;28;19914;-86
2021/11/16 12:38:15;;;;;;;;;;;;;;;5.09;100.00;101760.47;4954105;28;19921;-87
2021/11/16 12:40:43;;;;;;;;;;;;;;;5.12;100.00;101753.16;5013556;28;19920;-88
2021/11/16 12:43:21;;;;;;;;;;;;;;;5.09;100.00;101761.34;5006005;28;19919;-89
2021/11/16 12:45:52;;;;;;;;;;;;;;;5.07;100.00;101757.94;5005860;28;19953;-85
2021/11/16 12:48:19;;;;;;;;;;;;;;;5.06;100.00;101753.56;5007991;28;20424;-87
2021/11/16 12:51:03;;;;;;;;;;;;;;;5.08;100.00;101751.66;5009527;28;20292;-85
2021/11/16 12:53:47;;;;;;;;;;;;;;;5.10;100.00;101752.41;5009001;28;19920;-87
2021/11/16 12:56:13;;;;;;;;;;;;;;;5.12;100.00;101744.31;5012066;28;19917;-86